sensor_id;sensor_type;location;lat;lon;timestamp;P1;durP1;ratioP1;P2;durP2;ratioP2
36423;SDS011;22458;45.328;9.514;2023-05-10T00:02:06;8.23;;;5.60;;
36423;SDS011;22458;45.328;9.514;2023-05-10T00:04:32;6.30;;;5.50;;
36423;SDS011;22458;45.328;9.514;2023-05-10T00:06:58;6.20;;;5.60;;
36423;SDS011;22458;45.328;9.514;2023-05-10T00:09:23;4.90;;;4.40;;
36423;SDS011;22458;45.328;9.514;2023-05-10T00:11:49;5.93;;;5.32;;
36423;SDS011;22458;45.328;9.514;2023-05-10T00:14:15;9.02;;;5.70;;
36423;SDS011;22458;45.328;9.514;2023-05-10T00:16:41;7.28;;;6.00;;
36423;SDS011;22458;45.328;9.514;2023-05-10T00:19:07;6.85;;;5.80;;
36423;SDS011;22458;45.328;9.514;2023-05-10T00:21:32;7.95;;;5.30;;
36423;SDS011;22458;45.328;9.514;2023-05-10T00:23:59;6.43;;;5.60;;
36423;SDS011;22458;45.328;9.514;2023-05-10T00:26:25;8.10;;;5.97;;
36423;SDS011;22458;45.328;9.514;2023-05-10T00:28:53;7.13;;;6.10;;
36423;SDS011;22458;45.328;9.514;2023-05-10T00:31:19;12.40;;;7.13;;
36423;SDS011;22458;45.328;9.514;2023-05-10T00:33:45;6.90;;;6.20;;
36423;SDS011;22458;45.328;9.514;2023-05-10T00:36:11;10.07;;;7.28;;
36423;SDS011;22458;45.328;9.514;2023-05-10T00:38:37;9.35;;;6.88;;
36423;SDS011;22458;45.328;9.514;2023-05-10T00:41:03;8.05;;;7.00;;
36423;SDS011;22458;45.328;9.514;2023-05-10T00:43:31;9.48;;;8.23;;
36423;SDS011;22458;45.328;9.514;2023-05-10T00:45:56;7.63;;;6.63;;
36423;SDS011;22458;45.328;9.514;2023-05-10T00:48:22;9.35;;;6.72;;
36423;SDS011;22458;45.328;9.514;2023-05-10T00:50:48;8.45;;;7.20;;
36423;SDS011;22458;45.328;9.514;2023-05-10T00:53:14;9.95;;;7.68;;
36423;SDS011;22458;45.328;9.514;2023-05-10T00:55:40;8.02;;;6.88;;
36423;SDS011;22458;45.328;9.514;2023-05-10T00:58:06;8.50;;;6.70;;
36423;SDS011;22458;45.328;9.514;2023-05-10T01:00:33;7.53;;;6.53;;
36423;SDS011;22458;45.328;9.514;2023-05-10T01:03:00;8.45;;;6.82;;
36423;SDS011;22458;45.328;9.514;2023-05-10T01:05:26;8.38;;;6.20;;
36423;SDS011;22458;45.328;9.514;2023-05-10T01:07:52;9.88;;;6.65;;
36423;SDS011;22458;45.328;9.514;2023-05-10T01:10:18;6.57;;;5.72;;
36423;SDS011;22458;45.328;9.514;2023-05-10T01:12:45;8.25;;;6.32;;
36423;SDS011;22458;45.328;9.514;2023-05-10T01:17:40;7.35;;;6.03;;
36423;SDS011;22458;45.328;9.514;2023-05-10T01:20:09;7.03;;;5.90;;
36423;SDS011;22458;45.328;9.514;2023-05-10T01:33:01;8.63;;;7.28;;
36423;SDS011;22458;45.328;9.514;2023-05-10T01:35:44;9.57;;;7.65;;
36423;SDS011;22458;45.328;9.514;2023-05-10T01:44:00;8.57;;;7.68;;
36423;SDS011;22458;45.328;9.514;2023-05-10T01:46:33;9.68;;;8.40;;
36423;SDS011;22458;45.328;9.514;2023-05-10T01:49:02;9.80;;;8.80;;
36423;SDS011;22458;45.328;9.514;2023-05-10T01:51:39;10.20;;;9.10;;
36423;SDS011;22458;45.328;9.514;2023-05-10T01:54:19;10.55;;;9.45;;
36423;SDS011;22458;45.328;9.514;2023-05-10T01:56:52;10.65;;;9.55;;
36423;SDS011;22458;45.328;9.514;2023-05-10T01:59:24;11.07;;;9.55;;
36423;SDS011;22458;45.328;9.514;2023-05-10T02:01:57;10.75;;;9.55;;
36423;SDS011;22458;45.328;9.514;2023-05-10T02:04:25;11.38;;;9.52;;
36423;SDS011;22458;45.328;9.514;2023-05-10T02:06:52;10.82;;;9.70;;
36423;SDS011;22458;45.328;9.514;2023-05-10T02:09:20;12.15;;;9.73;;
36423;SDS011;22458;45.328;9.514;2023-05-10T02:11:47;11.30;;;9.43;;
36423;SDS011;22458;45.328;9.514;2023-05-10T02:14:14;10.90;;;9.00;;
36423;SDS011;22458;45.328;9.514;2023-05-10T02:16:42;10.30;;;9.05;;
36423;SDS011;22458;45.328;9.514;2023-05-10T02:19:09;11.40;;;8.77;;
36423;SDS011;22458;45.328;9.514;2023-05-10T02:21:37;10.88;;;8.80;;
36423;SDS011;22458;45.328;9.514;2023-05-10T02:24:05;11.02;;;9.15;;
36423;SDS011;22458;45.328;9.514;2023-05-10T02:26:32;10.20;;;9.10;;
36423;SDS011;22458;45.328;9.514;2023-05-10T02:28:59;11.20;;;9.32;;
36423;SDS011;22458;45.328;9.514;2023-05-10T02:31:28;10.60;;;8.90;;
36423;SDS011;22458;45.328;9.514;2023-05-10T02:33:56;10.60;;;9.50;;
36423;SDS011;22458;45.328;9.514;2023-05-10T02:36:23;11.65;;;8.65;;
36423;SDS011;22458;45.328;9.514;2023-05-10T02:38:52;12.38;;;9.15;;
36423;SDS011;22458;45.328;9.514;2023-05-10T02:41:19;12.35;;;9.60;;
36423;SDS011;22458;45.328;9.514;2023-05-10T02:43:49;11.40;;;9.23;;
36423;SDS011;22458;45.328;9.514;2023-05-10T02:46:17;12.32;;;10.07;;
36423;SDS011;22458;45.328;9.514;2023-05-10T02:48:43;11.73;;;9.50;;
36423;SDS011;22458;45.328;9.514;2023-05-10T02:51:09;12.70;;;9.32;;
36423;SDS011;22458;45.328;9.514;2023-05-10T02:53:43;11.07;;;9.40;;
36423;SDS011;22458;45.328;9.514;2023-05-10T02:56:15;10.07;;;9.02;;
36423;SDS011;22458;45.328;9.514;2023-05-10T02:58:55;13.20;;;9.15;;
36423;SDS011;22458;45.328;9.514;2023-05-10T03:01:21;10.48;;;9.02;;
36423;SDS011;22458;45.328;9.514;2023-05-10T03:03:47;9.77;;;8.77;;
36423;SDS011;22458;45.328;9.514;2023-05-10T03:06:13;12.75;;;9.93;;
36423;SDS011;22458;45.328;9.514;2023-05-10T03:08:39;9.85;;;8.80;;
36423;SDS011;22458;45.328;9.514;2023-05-10T03:13:48;9.30;;;7.45;;
36423;SDS011;22458;45.328;9.514;2023-05-10T03:16:22;8.50;;;7.60;;
36423;SDS011;22458;45.328;9.514;2023-05-10T03:18:58;9.52;;;6.93;;
36423;SDS011;22458;45.328;9.514;2023-05-10T03:23:59;8.27;;;6.25;;
36423;SDS011;22458;45.328;9.514;2023-05-10T03:26:32;7.22;;;6.47;;
36423;SDS011;22458;45.328;9.514;2023-05-10T03:29:08;8.38;;;7.10;;
36423;SDS011;22458;45.328;9.514;2023-05-10T03:31:35;8.13;;;7.22;;
36423;SDS011;22458;45.328;9.514;2023-05-10T03:34:01;9.93;;;8.32;;
36423;SDS011;22458;45.328;9.514;2023-05-10T03:36:26;9.25;;;7.20;;
36423;SDS011;22458;45.328;9.514;2023-05-10T03:38:53;10.73;;;8.40;;
36423;SDS011;22458;45.328;9.514;2023-05-10T03:41:20;8.70;;;7.80;;
36423;SDS011;22458;45.328;9.514;2023-05-10T03:43:46;8.68;;;7.47;;
36423;SDS011;22458;45.328;9.514;2023-05-10T03:46:12;8.45;;;7.32;;
36423;SDS011;22458;45.328;9.514;2023-05-10T03:48:38;9.52;;;7.57;;
36423;SDS011;22458;45.328;9.514;2023-05-10T03:51:04;7.38;;;6.60;;
36423;SDS011;22458;45.328;9.514;2023-05-10T03:53:30;7.65;;;6.80;;
36423;SDS011;22458;45.328;9.514;2023-05-10T03:55:56;8.07;;;6.15;;
36423;SDS011;22458;45.328;9.514;2023-05-10T03:58:22;7.32;;;5.55;;
36423;SDS011;22458;45.328;9.514;2023-05-10T04:00:48;7.28;;;6.28;;
36423;SDS011;22458;45.328;9.514;2023-05-10T04:03:14;8.13;;;6.10;;
36423;SDS011;22458;45.328;9.514;2023-05-10T04:05:40;7.72;;;5.68;;
36423;SDS011;22458;45.328;9.514;2023-05-10T04:08:05;6.53;;;5.43;;
36423;SDS011;22458;45.328;9.514;2023-05-10T04:10:31;6.40;;;5.45;;
36423;SDS011;22458;45.328;9.514;2023-05-10T04:12:57;6.22;;;4.78;;
36423;SDS011;22458;45.328;9.514;2023-05-10T04:15:23;7.18;;;5.60;;
36423;SDS011;22458;45.328;9.514;2023-05-10T04:17:48;5.40;;;4.50;;
36423;SDS011;22458;45.328;9.514;2023-05-10T04:20:15;5.75;;;4.40;;
36423;SDS011;22458;45.328;9.514;2023-05-10T04:22:41;5.45;;;4.88;;
36423;SDS011;22458;45.328;9.514;2023-05-10T04:25:07;5.60;;;4.60;;
36423;SDS011;22458;45.328;9.514;2023-05-10T04:27:33;4.45;;;4.05;;
36423;SDS011;22458;45.328;9.514;2023-05-10T04:29:59;5.80;;;4.43;;
36423;SDS011;22458;45.328;9.514;2023-05-10T04:32:24;6.60;;;3.95;;
36423;SDS011;22458;45.328;9.514;2023-05-10T04:34:50;3.33;;;3.03;;
36423;SDS011;22458;45.328;9.514;2023-05-10T04:37:17;4.25;;;3.38;;
36423;SDS011;22458;45.328;9.514;2023-05-10T04:39:43;3.70;;;3.25;;
36423;SDS011;22458;45.328;9.514;2023-05-10T04:42:09;3.58;;;3.25;;
36423;SDS011;22458;45.328;9.514;2023-05-10T04:44:35;4.70;;;3.17;;
36423;SDS011;22458;45.328;9.514;2023-05-10T04:47:01;5.45;;;3.20;;
36423;SDS011;22458;45.328;9.514;2023-05-10T04:49:28;5.35;;;3.17;;
36423;SDS011;22458;45.328;9.514;2023-05-10T04:51:54;3.22;;;2.92;;
36423;SDS011;22458;45.328;9.514;2023-05-10T04:54:20;5.18;;;4.10;;
36423;SDS011;22458;45.328;9.514;2023-05-10T04:56:46;3.42;;;3.13;;
36423;SDS011;22458;45.328;9.514;2023-05-10T04:59:12;6.05;;;3.47;;
36423;SDS011;22458;45.328;9.514;2023-05-10T05:01:37;5.75;;;3.50;;
36423;SDS011;22458;45.328;9.514;2023-05-10T05:04:03;5.20;;;3.63;;
36423;SDS011;22458;45.328;9.514;2023-05-10T05:06:29;4.30;;;3.42;;
36423;SDS011;22458;45.328;9.514;2023-05-10T05:08:55;4.45;;;3.55;;
36423;SDS011;22458;45.328;9.514;2023-05-10T05:11:20;4.10;;;3.60;;
36423;SDS011;22458;45.328;9.514;2023-05-10T05:13:47;4.07;;;3.58;;
36423;SDS011;22458;45.328;9.514;2023-05-10T05:16:12;3.50;;;3.20;;
36423;SDS011;22458;45.328;9.514;2023-05-10T05:18:38;6.55;;;3.40;;
36423;SDS011;22458;45.328;9.514;2023-05-10T05:21:13;6.70;;;3.40;;
36423;SDS011;22458;45.328;9.514;2023-05-10T05:23:42;4.00;;;3.60;;
36423;SDS011;22458;45.328;9.514;2023-05-10T05:26:08;4.93;;;3.00;;
36423;SDS011;22458;45.328;9.514;2023-05-10T05:28:34;5.05;;;3.08;;
36423;SDS011;22458;45.328;9.514;2023-05-10T05:31:05;4.80;;;3.38;;
36423;SDS011;22458;45.328;9.514;2023-05-10T05:33:32;3.72;;;3.33;;
36423;SDS011;22458;45.328;9.514;2023-05-10T05:36:02;5.80;;;3.40;;
36423;SDS011;22458;45.328;9.514;2023-05-10T05:38:29;5.30;;;4.32;;
36423;SDS011;22458;45.328;9.514;2023-05-10T05:40:55;4.13;;;3.42;;
36423;SDS011;22458;45.328;9.514;2023-05-10T05:43:21;3.95;;;3.03;;
36423;SDS011;22458;45.328;9.514;2023-05-10T05:45:46;5.07;;;3.15;;
36423;SDS011;22458;45.328;9.514;2023-05-10T05:48:12;3.67;;;3.05;;
36423;SDS011;22458;45.328;9.514;2023-05-10T05:50:38;4.60;;;3.25;;
36423;SDS011;22458;45.328;9.514;2023-05-10T05:53:03;4.43;;;3.55;;
36423;SDS011;22458;45.328;9.514;2023-05-10T05:55:29;5.00;;;3.50;;
36423;SDS011;22458;45.328;9.514;2023-05-10T05:57:56;3.97;;;3.40;;
36423;SDS011;22458;45.328;9.514;2023-05-10T06:00:23;3.85;;;2.90;;
36423;SDS011;22458;45.328;9.514;2023-05-10T06:02:49;3.05;;;2.72;;
36423;SDS011;22458;45.328;9.514;2023-05-10T06:05:14;5.60;;;3.08;;
36423;SDS011;22458;45.328;9.514;2023-05-10T06:07:40;3.88;;;2.70;;
36423;SDS011;22458;45.328;9.514;2023-05-10T06:10:09;3.80;;;2.92;;
36423;SDS011;22458;45.328;9.514;2023-05-10T06:12:35;3.63;;;2.80;;
36423;SDS011;22458;45.328;9.514;2023-05-10T06:15:01;3.83;;;2.72;;
36423;SDS011;22458;45.328;9.514;2023-05-10T06:17:27;3.90;;;2.92;;
36423;SDS011;22458;45.328;9.514;2023-05-10T06:19:53;2.75;;;2.30;;
36423;SDS011;22458;45.328;9.514;2023-05-10T06:22:19;4.43;;;2.60;;
36423;SDS011;22458;45.328;9.514;2023-05-10T06:24:47;4.18;;;3.08;;
36423;SDS011;22458;45.328;9.514;2023-05-10T06:27:14;3.63;;;3.20;;
36423;SDS011;22458;45.328;9.514;2023-05-10T06:29:39;3.97;;;3.42;;
36423;SDS011;22458;45.328;9.514;2023-05-10T06:32:05;4.75;;;3.30;;
36423;SDS011;22458;45.328;9.514;2023-05-10T06:34:31;3.58;;;2.90;;
36423;SDS011;22458;45.328;9.514;2023-05-10T06:36:57;3.35;;;2.85;;
36423;SDS011;22458;45.328;9.514;2023-05-10T06:39:23;4.47;;;3.30;;
36423;SDS011;22458;45.328;9.514;2023-05-10T06:41:48;3.95;;;3.10;;
36423;SDS011;22458;45.328;9.514;2023-05-10T06:44:14;3.40;;;3.00;;
36423;SDS011;22458;45.328;9.514;2023-05-10T06:46:40;3.88;;;3.35;;
36423;SDS011;22458;45.328;9.514;2023-05-10T06:49:06;3.97;;;2.80;;
36423;SDS011;22458;45.328;9.514;2023-05-10T06:51:32;5.20;;;3.03;;
36423;SDS011;22458;45.328;9.514;2023-05-10T06:53:58;3.83;;;2.70;;
36423;SDS011;22458;45.328;9.514;2023-05-10T06:56:23;3.35;;;3.05;;
36423;SDS011;22458;45.328;9.514;2023-05-10T06:58:49;5.18;;;2.90;;
36423;SDS011;22458;45.328;9.514;2023-05-10T07:01:15;5.13;;;3.08;;
36423;SDS011;22458;45.328;9.514;2023-05-10T07:03:40;4.28;;;2.97;;
36423;SDS011;22458;45.328;9.514;2023-05-10T07:06:06;4.55;;;2.80;;
36423;SDS011;22458;45.328;9.514;2023-05-10T07:08:33;3.55;;;2.55;;
36423;SDS011;22458;45.328;9.514;2023-05-10T07:11:00;3.50;;;2.70;;
36423;SDS011;22458;45.328;9.514;2023-05-10T07:13:30;2.63;;;2.20;;
36423;SDS011;22458;45.328;9.514;2023-05-10T07:15:56;4.57;;;2.92;;
36423;SDS011;22458;45.328;9.514;2023-05-10T07:18:23;3.40;;;2.92;;
36423;SDS011;22458;45.328;9.514;2023-05-10T07:20:49;3.22;;;2.55;;
36423;SDS011;22458;45.328;9.514;2023-05-10T07:23:15;4.00;;;2.60;;
36423;SDS011;22458;45.328;9.514;2023-05-10T07:25:51;3.78;;;2.80;;
36423;SDS011;22458;45.328;9.514;2023-05-10T07:28:18;3.80;;;2.75;;
36423;SDS011;22458;45.328;9.514;2023-05-10T07:30:44;5.80;;;2.72;;
36423;SDS011;22458;45.328;9.514;2023-05-10T07:33:11;4.93;;;2.70;;
36423;SDS011;22458;45.328;9.514;2023-05-10T07:35:38;3.40;;;2.55;;
36423;SDS011;22458;45.328;9.514;2023-05-10T07:38:05;3.40;;;2.78;;
36423;SDS011;22458;45.328;9.514;2023-05-10T07:40:30;2.97;;;2.65;;
36423;SDS011;22458;45.328;9.514;2023-05-10T07:42:56;3.63;;;2.90;;
36423;SDS011;22458;45.328;9.514;2023-05-10T07:45:22;4.38;;;3.40;;
36423;SDS011;22458;45.328;9.514;2023-05-10T07:47:48;5.13;;;2.70;;
36423;SDS011;22458;45.328;9.514;2023-05-10T07:50:14;3.25;;;2.75;;
36423;SDS011;22458;45.328;9.514;2023-05-10T07:52:40;3.47;;;2.90;;
36423;SDS011;22458;45.328;9.514;2023-05-10T07:55:06;3.50;;;2.97;;
36423;SDS011;22458;45.328;9.514;2023-05-10T07:57:33;3.90;;;2.85;;
36423;SDS011;22458;45.328;9.514;2023-05-10T07:59:59;4.53;;;3.08;;
36423;SDS011;22458;45.328;9.514;2023-05-10T08:02:25;3.22;;;2.92;;
36423;SDS011;22458;45.328;9.514;2023-05-10T08:04:51;5.10;;;3.33;;
36423;SDS011;22458;45.328;9.514;2023-05-10T08:07:17;2.90;;;2.60;;
36423;SDS011;22458;45.328;9.514;2023-05-10T08:09:43;4.05;;;2.95;;
36423;SDS011;22458;45.328;9.514;2023-05-10T08:12:09;3.00;;;2.55;;
36423;SDS011;22458;45.328;9.514;2023-05-10T08:14:35;3.17;;;2.83;;
36423;SDS011;22458;45.328;9.514;2023-05-10T08:17:02;3.42;;;2.88;;
36423;SDS011;22458;45.328;9.514;2023-05-10T08:19:28;3.05;;;2.70;;
36423;SDS011;22458;45.328;9.514;2023-05-10T08:21:54;3.17;;;2.53;;
36423;SDS011;22458;45.328;9.514;2023-05-10T08:24:21;2.72;;;2.35;;
36423;SDS011;22458;45.328;9.514;2023-05-10T08:26:47;3.53;;;2.50;;
36423;SDS011;22458;45.328;9.514;2023-05-10T08:29:13;5.22;;;2.75;;
36423;SDS011;22458;45.328;9.514;2023-05-10T08:31:39;3.33;;;2.67;;
36423;SDS011;22458;45.328;9.514;2023-05-10T08:34:05;3.00;;;2.33;;
36423;SDS011;22458;45.328;9.514;2023-05-10T08:36:31;2.83;;;2.40;;
36423;SDS011;22458;45.328;9.514;2023-05-10T08:38:57;3.03;;;2.38;;
36423;SDS011;22458;45.328;9.514;2023-05-10T08:41:23;4.93;;;2.40;;
36423;SDS011;22458;45.328;9.514;2023-05-10T08:43:51;3.17;;;2.28;;
36423;SDS011;22458;45.328;9.514;2023-05-10T08:46:18;2.33;;;2.05;;
36423;SDS011;22458;45.328;9.514;2023-05-10T08:48:46;3.40;;;2.50;;
36423;SDS011;22458;45.328;9.514;2023-05-10T08:51:13;2.67;;;2.17;;
36423;SDS011;22458;45.328;9.514;2023-05-10T08:53:41;2.93;;;2.50;;
36423;SDS011;22458;45.328;9.514;2023-05-10T08:56:07;3.42;;;2.45;;
36423;SDS011;22458;45.328;9.514;2023-05-10T08:58:33;3.33;;;2.40;;
36423;SDS011;22458;45.328;9.514;2023-05-10T09:00:59;2.50;;;2.30;;
36423;SDS011;22458;45.328;9.514;2023-05-10T09:03:25;2.53;;;2.17;;
36423;SDS011;22458;45.328;9.514;2023-05-10T09:05:51;3.03;;;2.42;;
36423;SDS011;22458;45.328;9.514;2023-05-10T09:08:17;2.50;;;2.17;;
36423;SDS011;22458;45.328;9.514;2023-05-10T09:10:44;3.10;;;2.30;;
36423;SDS011;22458;45.328;9.514;2023-05-10T09:13:12;3.28;;;2.83;;
36423;SDS011;22458;45.328;9.514;2023-05-10T09:15:40;3.22;;;2.40;;
36423;SDS011;22458;45.328;9.514;2023-05-10T09:18:06;2.70;;;2.50;;
36423;SDS011;22458;45.328;9.514;2023-05-10T09:20:32;6.03;;;2.65;;
36423;SDS011;22458;45.328;9.514;2023-05-10T09:22:57;3.63;;;2.65;;
36423;SDS011;22458;45.328;9.514;2023-05-10T09:25:23;2.60;;;2.20;;
36423;SDS011;22458;45.328;9.514;2023-05-10T09:27:49;4.13;;;2.92;;
36423;SDS011;22458;45.328;9.514;2023-05-10T09:30:25;2.65;;;2.28;;
36423;SDS011;22458;45.328;9.514;2023-05-10T09:32:52;2.55;;;2.20;;
36423;SDS011;22458;45.328;9.514;2023-05-10T09:35:19;2.97;;;2.40;;
36423;SDS011;22458;45.328;9.514;2023-05-10T09:37:48;3.20;;;2.78;;
36423;SDS011;22458;45.328;9.514;2023-05-10T09:40:19;3.17;;;2.70;;
36423;SDS011;22458;45.328;9.514;2023-05-10T09:45:30;3.05;;;2.60;;
36423;SDS011;22458;45.328;9.514;2023-05-10T09:47:59;2.33;;;2.13;;
36423;SDS011;22458;45.328;9.514;2023-05-10T09:50:27;3.42;;;2.88;;
36423;SDS011;22458;45.328;9.514;2023-05-10T09:52:57;2.63;;;2.30;;
36423;SDS011;22458;45.328;9.514;2023-05-10T09:55:44;2.90;;;2.60;;
36423;SDS011;22458;45.328;9.514;2023-05-10T09:58:14;3.40;;;2.28;;
36423;SDS011;22458;45.328;9.514;2023-05-10T10:00:41;2.80;;;2.45;;
36423;SDS011;22458;45.328;9.514;2023-05-10T10:03:15;3.03;;;2.58;;
36423;SDS011;22458;45.328;9.514;2023-05-10T10:05:42;2.58;;;2.38;;
36423;SDS011;22458;45.328;9.514;2023-05-10T10:08:09;3.25;;;2.47;;
36423;SDS011;22458;45.328;9.514;2023-05-10T10:10:36;2.72;;;2.20;;
36423;SDS011;22458;45.328;9.514;2023-05-10T10:13:02;2.40;;;2.20;;
36423;SDS011;22458;45.328;9.514;2023-05-10T10:15:28;3.03;;;2.45;;
36423;SDS011;22458;45.328;9.514;2023-05-10T10:17:53;4.03;;;3.38;;
36423;SDS011;22458;45.328;9.514;2023-05-10T10:20:21;2.58;;;2.38;;
36423;SDS011;22458;45.328;9.514;2023-05-10T10:22:47;2.72;;;2.50;;
36423;SDS011;22458;45.328;9.514;2023-05-10T10:25:14;2.28;;;2.00;;
36423;SDS011;22458;45.328;9.514;2023-05-10T10:36:05;2.47;;;2.28;;
36423;SDS011;22458;45.328;9.514;2023-05-10T10:38:37;5.13;;;2.20;;
36423;SDS011;22458;45.328;9.514;2023-05-10T10:41:29;3.97;;;3.15;;
36423;SDS011;22458;45.328;9.514;2023-05-10T10:57:29;3.63;;;3.20;;
36423;SDS011;22458;45.328;9.514;2023-05-10T11:03:11;3.22;;;2.92;;
36423;SDS011;22458;45.328;9.514;2023-05-10T11:08:25;3.83;;;3.53;;
36423;SDS011;22458;45.328;9.514;2023-05-10T11:13:28;5.03;;;3.90;;
36423;SDS011;22458;45.328;9.514;2023-05-10T11:15:57;4.88;;;4.28;;
36423;SDS011;22458;45.328;9.514;2023-05-10T11:23:28;3.95;;;3.65;;
36423;SDS011;22458;45.328;9.514;2023-05-10T11:25:55;4.07;;;3.67;;
36423;SDS011;22458;45.328;9.514;2023-05-10T11:28:21;4.80;;;4.28;;
36423;SDS011;22458;45.328;9.514;2023-05-10T11:30:47;4.10;;;3.63;;
36423;SDS011;22458;45.328;9.514;2023-05-10T11:33:16;4.22;;;3.78;;
36423;SDS011;22458;45.328;9.514;2023-05-10T11:35:45;3.85;;;3.55;;
36423;SDS011;22458;45.328;9.514;2023-05-10T11:38:12;3.90;;;3.60;;
36423;SDS011;22458;45.328;9.514;2023-05-10T11:40:39;3.33;;;3.00;;
36423;SDS011;22458;45.328;9.514;2023-05-10T11:43:05;4.15;;;3.75;;
36423;SDS011;22458;45.328;9.514;2023-05-10T11:45:34;4.22;;;3.83;;
36423;SDS011;22458;45.328;9.514;2023-05-10T11:48:00;4.05;;;3.50;;
36423;SDS011;22458;45.328;9.514;2023-05-10T11:50:27;3.78;;;3.38;;
36423;SDS011;22458;45.328;9.514;2023-05-10T11:52:53;4.10;;;3.70;;
36423;SDS011;22458;45.328;9.514;2023-05-10T11:55:20;4.20;;;3.55;;
36423;SDS011;22458;45.328;9.514;2023-05-10T11:57:46;5.22;;;3.67;;
36423;SDS011;22458;45.328;9.514;2023-05-10T12:00:13;3.75;;;3.40;;
36423;SDS011;22458;45.328;9.514;2023-05-10T12:02:41;4.37;;;3.57;;
36423;SDS011;22458;45.328;9.514;2023-05-10T12:05:07;3.53;;;2.90;;
36423;SDS011;22458;45.328;9.514;2023-05-10T12:07:34;3.17;;;2.88;;
36423;SDS011;22458;45.328;9.514;2023-05-10T12:12:37;3.30;;;3.00;;
36423;SDS011;22458;45.328;9.514;2023-05-10T12:15:26;3.30;;;3.00;;
36423;SDS011;22458;45.328;9.514;2023-05-10T12:17:53;3.22;;;2.70;;
36423;SDS011;22458;45.328;9.514;2023-05-10T12:20:19;3.40;;;3.10;;
36423;SDS011;22458;45.328;9.514;2023-05-10T12:22:47;3.72;;;3.30;;
36423;SDS011;22458;45.328;9.514;2023-05-10T12:25:15;3.42;;;3.13;;
36423;SDS011;22458;45.328;9.514;2023-05-10T12:27:47;4.05;;;3.30;;
36423;SDS011;22458;45.328;9.514;2023-05-10T12:30:18;3.03;;;2.72;;
36423;SDS011;22458;45.328;9.514;2023-05-10T12:32:46;3.47;;;3.05;;
36423;SDS011;22458;45.328;9.514;2023-05-10T12:35:11;3.13;;;2.83;;
36423;SDS011;22458;45.328;9.514;2023-05-10T12:37:37;3.58;;;2.60;;
36423;SDS011;22458;45.328;9.514;2023-05-10T12:40:09;2.95;;;2.60;;
36423;SDS011;22458;45.328;9.514;2023-05-10T12:42:36;3.53;;;3.00;;
36423;SDS011;22458;45.328;9.514;2023-05-10T12:45:04;2.97;;;2.67;;
36423;SDS011;22458;45.328;9.514;2023-05-10T12:47:31;2.90;;;2.60;;
36423;SDS011;22458;45.328;9.514;2023-05-10T12:49:57;3.55;;;2.50;;
36423;SDS011;22458;45.328;9.514;2023-05-10T12:52:25;3.65;;;2.40;;
36423;SDS011;22458;45.328;9.514;2023-05-10T12:54:51;3.10;;;2.65;;
36423;SDS011;22458;45.328;9.514;2023-05-10T12:57:17;2.67;;;2.25;;
36423;SDS011;22458;45.328;9.514;2023-05-10T12:59:43;2.67;;;2.22;;
36423;SDS011;22458;45.328;9.514;2023-05-10T13:02:09;2.58;;;2.28;;
36423;SDS011;22458;45.328;9.514;2023-05-10T13:04:35;3.10;;;2.35;;
36423;SDS011;22458;45.328;9.514;2023-05-10T13:07:04;2.60;;;2.38;;
36423;SDS011;22458;45.328;9.514;2023-05-10T13:09:31;2.67;;;2.47;;
36423;SDS011;22458;45.328;9.514;2023-05-10T13:11:56;2.22;;;1.83;;
36423;SDS011;22458;45.328;9.514;2023-05-10T13:14:22;2.78;;;1.98;;
36423;SDS011;22458;45.328;9.514;2023-05-10T13:16:50;2.40;;;2.20;;
36423;SDS011;22458;45.328;9.514;2023-05-10T13:19:16;2.55;;;2.35;;
36423;SDS011;22458;45.328;9.514;2023-05-10T13:21:42;2.85;;;2.20;;
36423;SDS011;22458;45.328;9.514;2023-05-10T13:24:09;3.45;;;2.30;;
36423;SDS011;22458;45.328;9.514;2023-05-10T13:26:38;2.70;;;1.65;;
36423;SDS011;22458;45.328;9.514;2023-05-10T13:29:08;2.42;;;1.83;;
36423;SDS011;22458;45.328;9.514;2023-05-10T13:31:34;2.25;;;1.90;;
36423;SDS011;22458;45.328;9.514;2023-05-10T13:34:01;2.60;;;2.40;;
36423;SDS011;22458;45.328;9.514;2023-05-10T13:36:27;2.47;;;2.00;;
36423;SDS011;22458;45.328;9.514;2023-05-10T13:38:53;2.17;;;1.83;;
36423;SDS011;22458;45.328;9.514;2023-05-10T13:41:19;2.20;;;2.00;;
36423;SDS011;22458;45.328;9.514;2023-05-10T13:43:44;1.80;;;1.60;;
36423;SDS011;22458;45.328;9.514;2023-05-10T13:46:10;3.15;;;1.80;;
36423;SDS011;22458;45.328;9.514;2023-05-10T13:48:36;1.67;;;1.35;;
36423;SDS011;22458;45.328;9.514;2023-05-10T13:51:02;3.10;;;1.88;;
36423;SDS011;22458;45.328;9.514;2023-05-10T13:53:28;3.03;;;1.90;;
36423;SDS011;22458;45.328;9.514;2023-05-10T13:55:54;2.30;;;2.08;;
36423;SDS011;22458;45.328;9.514;2023-05-10T13:58:19;2.55;;;2.10;;
36423;SDS011;22458;45.328;9.514;2023-05-10T14:00:45;1.77;;;1.65;;
36423;SDS011;22458;45.328;9.514;2023-05-10T14:03:11;2.42;;;2.03;;
36423;SDS011;22458;45.328;9.514;2023-05-10T14:05:37;2.08;;;1.88;;
36423;SDS011;22458;45.328;9.514;2023-05-10T14:08:02;2.30;;;2.03;;
36423;SDS011;22458;45.328;9.514;2023-05-10T14:10:29;2.20;;;1.83;;
36423;SDS011;22458;45.328;9.514;2023-05-10T14:12:55;2.47;;;2.10;;
36423;SDS011;22458;45.328;9.514;2023-05-10T14:15:21;2.70;;;2.20;;
36423;SDS011;22458;45.328;9.514;2023-05-10T14:17:46;2.88;;;1.88;;
36423;SDS011;22458;45.328;9.514;2023-05-10T14:20:12;2.60;;;2.10;;
36423;SDS011;22458;45.328;9.514;2023-05-10T14:22:38;2.10;;;1.90;;
36423;SDS011;22458;45.328;9.514;2023-05-10T14:25:04;1.77;;;1.58;;
36423;SDS011;22458;45.328;9.514;2023-05-10T14:27:30;1.80;;;1.65;;
36423;SDS011;22458;45.328;9.514;2023-05-10T14:29:56;2.72;;;1.90;;
36423;SDS011;22458;45.328;9.514;2023-05-10T14:32:22;2.45;;;2.22;;
36423;SDS011;22458;45.328;9.514;2023-05-10T14:34:47;2.92;;;2.53;;
36423;SDS011;22458;45.328;9.514;2023-05-10T14:37:13;4.10;;;3.67;;
36423;SDS011;22458;45.328;9.514;2023-05-10T14:39:40;2.33;;;2.13;;
36423;SDS011;22458;45.328;9.514;2023-05-10T14:42:07;2.63;;;2.22;;
36423;SDS011;22458;45.328;9.514;2023-05-10T14:44:33;4.57;;;2.22;;
36423;SDS011;22458;45.328;9.514;2023-05-10T14:46:59;2.72;;;2.40;;
36423;SDS011;22458;45.328;9.514;2023-05-10T14:49:25;4.47;;;2.20;;
36423;SDS011;22458;45.328;9.514;2023-05-10T14:51:51;2.70;;;2.30;;
36423;SDS011;22458;45.328;9.514;2023-05-10T14:54:17;5.00;;;2.08;;
36423;SDS011;22458;45.328;9.514;2023-05-10T14:56:42;3.10;;;2.80;;
36423;SDS011;22458;45.328;9.514;2023-05-10T14:59:08;3.95;;;2.40;;
36423;SDS011;22458;45.328;9.514;2023-05-10T15:01:34;2.30;;;2.10;;
36423;SDS011;22458;45.328;9.514;2023-05-10T15:04:02;2.67;;;2.20;;
36423;SDS011;22458;45.328;9.514;2023-05-10T15:06:33;2.95;;;2.50;;
36423;SDS011;22458;45.328;9.514;2023-05-10T15:09:00;3.45;;;2.40;;
36423;SDS011;22458;45.328;9.514;2023-05-10T15:11:26;3.65;;;2.80;;
36423;SDS011;22458;45.328;9.514;2023-05-10T15:13:52;2.88;;;2.55;;
36423;SDS011;22458;45.328;9.514;2023-05-10T15:16:18;2.83;;;2.60;;
36423;SDS011;22458;45.328;9.514;2023-05-10T15:18:44;2.97;;;2.72;;
36423;SDS011;22458;45.328;9.514;2023-05-10T15:21:11;2.67;;;2.28;;
36423;SDS011;22458;45.328;9.514;2023-05-10T15:23:37;3.58;;;2.45;;
36423;SDS011;22458;45.328;9.514;2023-05-10T15:26:02;2.70;;;2.50;;
36423;SDS011;22458;45.328;9.514;2023-05-10T15:28:28;2.60;;;2.10;;
36423;SDS011;22458;45.328;9.514;2023-05-10T15:30:54;3.63;;;2.50;;
36423;SDS011;22458;45.328;9.514;2023-05-10T15:33:21;3.03;;;2.70;;
36423;SDS011;22458;45.328;9.514;2023-05-10T15:35:47;3.53;;;2.53;;
36423;SDS011;22458;45.328;9.514;2023-05-10T15:38:13;3.58;;;2.72;;
36423;SDS011;22458;45.328;9.514;2023-05-10T15:40:39;2.65;;;2.40;;
36423;SDS011;22458;45.328;9.514;2023-05-10T15:43:05;3.92;;;2.80;;
36423;SDS011;22458;45.328;9.514;2023-05-10T15:45:30;4.65;;;4.00;;
36423;SDS011;22458;45.328;9.514;2023-05-10T15:47:57;2.88;;;2.58;;
36423;SDS011;22458;45.328;9.514;2023-05-10T15:50:24;4.68;;;3.20;;